sensor_id;sensor_type;location;lat;lon;timestamp;P1;durP1;ratioP1;P2;durP2;ratioP2
68888;SDS011;55930;47.412;8.790;2022-12-08T00:00:53;21.87;;;14.77;;
68888;SDS011;55930;47.412;8.790;2022-12-08T00:04:15;21.02;;;15.75;;
68888;SDS011;55930;47.412;8.790;2022-12-08T00:07:37;24.23;;;16.60;;
68888;SDS011;55930;47.412;8.790;2022-12-08T00:11:16;26.30;;;16.52;;
68888;SDS011;55930;47.412;8.790;2022-12-08T00:14:38;25.15;;;17.55;;
68888;SDS011;55930;47.412;8.790;2022-12-08T00:18:01;26.80;;;17.38;;
68888;SDS011;55930;47.412;8.790;2022-12-08T00:21:21;25.83;;;17.67;;
68888;SDS011;55930;47.412;8.790;2022-12-08T00:24:42;26.43;;;17.63;;
68888;SDS011;55930;47.412;8.790;2022-12-08T00:28:14;25.75;;;17.75;;
68888;SDS011;55930;47.412;8.790;2022-12-08T00:31:35;22.83;;;16.40;;
68888;SDS011;55930;47.412;8.790;2022-12-08T00:34:58;23.67;;;17.00;;
68888;SDS011;55930;47.412;8.790;2022-12-08T00:38:19;24.13;;;16.47;;
68888;SDS011;55930;47.412;8.790;2022-12-08T00:41:42;25.20;;;16.98;;
68888;SDS011;55930;47.412;8.790;2022-12-08T00:45:22;26.98;;;16.58;;
68888;SDS011;55930;47.412;8.790;2022-12-08T00:48:43;23.60;;;17.50;;
68888;SDS011;55930;47.412;8.790;2022-12-08T00:52:03;26.50;;;18.37;;
68888;SDS011;55930;47.412;8.790;2022-12-08T00:55:24;24.40;;;17.83;;
68888;SDS011;55930;47.412;8.790;2022-12-08T00:58:44;24.90;;;16.53;;
68888;SDS011;55930;47.412;8.790;2022-12-08T01:02:04;24.63;;;16.57;;
68888;SDS011;55930;47.412;8.790;2022-12-08T01:05:25;22.10;;;15.33;;
68888;SDS011;55930;47.412;8.790;2022-12-08T01:08:45;23.40;;;16.23;;
68888;SDS011;55930;47.412;8.790;2022-12-08T01:12:06;24.73;;;15.97;;
68888;SDS011;55930;47.412;8.790;2022-12-08T01:15:26;25.57;;;16.63;;
68888;SDS011;55930;47.412;8.790;2022-12-08T01:18:47;24.07;;;15.77;;
68888;SDS011;55930;47.412;8.790;2022-12-08T01:22:08;22.13;;;15.98;;
68888;SDS011;55930;47.412;8.790;2022-12-08T01:25:28;25.23;;;16.10;;
68888;SDS011;55930;47.412;8.790;2022-12-08T01:28:49;24.93;;;14.77;;
68888;SDS011;55930;47.412;8.790;2022-12-08T01:32:09;23.90;;;15.93;;
68888;SDS011;55930;47.412;8.790;2022-12-08T01:35:30;21.47;;;15.00;;
68888;SDS011;55930;47.412;8.790;2022-12-08T01:38:51;25.90;;;14.93;;
68888;SDS011;55930;47.412;8.790;2022-12-08T01:42:19;23.38;;;16.60;;
68888;SDS011;55930;47.412;8.790;2022-12-08T01:45:41;25.23;;;15.20;;
68888;SDS011;55930;47.412;8.790;2022-12-08T01:49:03;23.87;;;15.83;;
68888;SDS011;55930;47.412;8.790;2022-12-08T01:52:31;23.08;;;16.48;;
68888;SDS011;55930;47.412;8.790;2022-12-08T01:55:57;24.63;;;15.50;;
68888;SDS011;55930;47.412;8.790;2022-12-08T01:59:20;24.00;;;15.52;;
68888;SDS011;55930;47.412;8.790;2022-12-08T02:03:01;21.73;;;15.02;;
68888;SDS011;55930;47.412;8.790;2022-12-08T02:06:30;24.13;;;16.30;;
68888;SDS011;55930;47.412;8.790;2022-12-08T02:09:56;26.40;;;16.75;;
68888;SDS011;55930;47.412;8.790;2022-12-08T02:13:17;24.30;;;15.82;;
68888;SDS011;55930;47.412;8.790;2022-12-08T02:20:48;26.40;;;15.07;;
68888;SDS011;55930;47.412;8.790;2022-12-08T02:32:03;25.08;;;17.85;;
68888;SDS011;55930;47.412;8.790;2022-12-08T02:46:27;27.80;;;18.08;;
68888;SDS011;55930;47.412;8.790;2022-12-08T02:49:52;27.98;;;17.42;;
68888;SDS011;55930;47.412;8.790;2022-12-08T02:53:14;30.10;;;18.65;;
68888;SDS011;55930;47.412;8.790;2022-12-08T03:00:28;28.00;;;17.48;;
68888;SDS011;55930;47.412;8.790;2022-12-08T03:04:05;28.95;;;17.85;;
68888;SDS011;55930;47.412;8.790;2022-12-08T03:11:03;28.88;;;18.60;;
68888;SDS011;55930;47.412;8.790;2022-12-08T03:14:32;28.65;;;19.38;;
68888;SDS011;55930;47.412;8.790;2022-12-08T03:17:55;28.10;;;18.98;;
68888;SDS011;55930;47.412;8.790;2022-12-08T03:21:17;31.92;;;18.20;;
68888;SDS011;55930;47.412;8.790;2022-12-08T03:24:40;30.67;;;20.10;;
68888;SDS011;55930;47.412;8.790;2022-12-08T03:28:05;32.25;;;19.30;;
68888;SDS011;55930;47.412;8.790;2022-12-08T03:31:30;29.98;;;20.15;;
68888;SDS011;55930;47.412;8.790;2022-12-08T03:34:53;28.80;;;19.15;;
68888;SDS011;55930;47.412;8.790;2022-12-08T03:38:22;25.75;;;17.75;;
68888;SDS011;55930;47.412;8.790;2022-12-08T03:41:42;30.83;;;19.40;;
68888;SDS011;55930;47.412;8.790;2022-12-08T03:45:03;29.17;;;19.38;;
68888;SDS011;55930;47.412;8.790;2022-12-08T03:48:24;25.77;;;17.40;;
68888;SDS011;55930;47.412;8.790;2022-12-08T03:51:45;27.77;;;18.43;;
68888;SDS011;55930;47.412;8.790;2022-12-08T03:55:05;28.83;;;18.43;;
68888;SDS011;55930;47.412;8.790;2022-12-08T03:58:26;29.52;;;19.75;;
68888;SDS011;55930;47.412;8.790;2022-12-08T04:01:47;37.07;;;24.13;;
68888;SDS011;55930;47.412;8.790;2022-12-08T04:05:08;32.77;;;21.37;;
68888;SDS011;55930;47.412;8.790;2022-12-08T04:08:29;32.35;;;19.83;;
68888;SDS011;55930;47.412;8.790;2022-12-08T04:11:49;32.47;;;20.00;;
68888;SDS011;55930;47.412;8.790;2022-12-08T04:15:09;33.47;;;18.83;;
68888;SDS011;55930;47.412;8.790;2022-12-08T04:18:30;28.90;;;18.90;;
68888;SDS011;55930;47.412;8.790;2022-12-08T04:25:12;27.20;;;17.17;;
68888;SDS011;55930;47.412;8.790;2022-12-08T04:28:32;31.00;;;19.37;;
68888;SDS011;55930;47.412;8.790;2022-12-08T04:31:53;30.17;;;19.83;;
68888;SDS011;55930;47.412;8.790;2022-12-08T04:35:13;27.80;;;19.30;;
68888;SDS011;55930;47.412;8.790;2022-12-08T04:38:34;32.33;;;19.77;;
68888;SDS011;55930;47.412;8.790;2022-12-08T04:41:57;32.38;;;20.73;;
68888;SDS011;55930;47.412;8.790;2022-12-08T04:45:18;32.33;;;20.33;;
68888;SDS011;55930;47.412;8.790;2022-12-08T04:48:38;31.30;;;20.57;;
68888;SDS011;55930;47.412;8.790;2022-12-08T04:51:59;30.42;;;18.85;;
68888;SDS011;55930;47.412;8.790;2022-12-08T04:55:20;32.10;;;20.23;;
68888;SDS011;55930;47.412;8.790;2022-12-08T04:58:57;31.33;;;19.75;;
68888;SDS011;55930;47.412;8.790;2022-12-08T05:02:18;21.53;;;14.90;;
68888;SDS011;55930;47.412;8.790;2022-12-08T05:05:38;31.90;;;19.63;;
68888;SDS011;55930;47.412;8.790;2022-12-08T05:09:00;29.02;;;19.23;;
68888;SDS011;55930;47.412;8.790;2022-12-08T05:12:23;31.60;;;19.63;;
68888;SDS011;55930;47.412;8.790;2022-12-08T05:15:44;29.50;;;20.00;;
68888;SDS011;55930;47.412;8.790;2022-12-08T05:19:04;28.37;;;18.27;;
68888;SDS011;55930;47.412;8.790;2022-12-08T05:22:24;29.20;;;19.60;;
68888;SDS011;55930;47.412;8.790;2022-12-08T05:25:50;32.10;;;18.88;;
68888;SDS011;55930;47.412;8.790;2022-12-08T05:29:16;28.80;;;19.08;;
68888;SDS011;55930;47.412;8.790;2022-12-08T05:32:36;31.40;;;21.20;;
68888;SDS011;55930;47.412;8.790;2022-12-08T05:35:57;32.70;;;21.33;;
68888;SDS011;55930;47.412;8.790;2022-12-08T05:39:17;29.53;;;19.43;;
68888;SDS011;55930;47.412;8.790;2022-12-08T05:42:38;28.73;;;19.10;;
68888;SDS011;55930;47.412;8.790;2022-12-08T05:45:58;29.60;;;19.83;;
68888;SDS011;55930;47.412;8.790;2022-12-08T05:49:18;29.03;;;19.50;;
68888;SDS011;55930;47.412;8.790;2022-12-08T05:52:39;31.13;;;20.27;;
68888;SDS011;55930;47.412;8.790;2022-12-08T05:55:59;31.33;;;18.37;;
68888;SDS011;55930;47.412;8.790;2022-12-08T05:59:20;33.03;;;21.27;;
68888;SDS011;55930;47.412;8.790;2022-12-08T06:02:40;30.63;;;20.53;;
68888;SDS011;55930;47.412;8.790;2022-12-08T06:06:00;31.23;;;19.80;;
68888;SDS011;55930;47.412;8.790;2022-12-08T06:09:23;30.13;;;18.85;;
68888;SDS011;55930;47.412;8.790;2022-12-08T06:12:43;33.83;;;18.73;;
68888;SDS011;55930;47.412;8.790;2022-12-08T06:16:04;37.13;;;26.63;;
68888;SDS011;55930;47.412;8.790;2022-12-08T06:22:45;31.40;;;19.48;;
68888;SDS011;55930;47.412;8.790;2022-12-08T06:26:10;33.63;;;21.67;;
68888;SDS011;55930;47.412;8.790;2022-12-08T06:29:34;34.33;;;21.02;;
68888;SDS011;55930;47.412;8.790;2022-12-08T06:33:03;33.15;;;21.00;;
68888;SDS011;55930;47.412;8.790;2022-12-08T06:36:29;36.03;;;20.63;;
68888;SDS011;55930;47.412;8.790;2022-12-08T06:39:49;31.20;;;20.90;;
68888;SDS011;55930;47.412;8.790;2022-12-08T06:43:10;33.25;;;23.02;;
68888;SDS011;55930;47.412;8.790;2022-12-08T06:46:31;32.10;;;21.20;;
68888;SDS011;55930;47.412;8.790;2022-12-08T06:49:51;32.03;;;21.60;;
68888;SDS011;55930;47.412;8.790;2022-12-08T06:53:12;36.97;;;20.40;;
68888;SDS011;55930;47.412;8.790;2022-12-08T06:56:34;39.88;;;24.10;;
68888;SDS011;55930;47.412;8.790;2022-12-08T06:59:57;30.73;;;20.93;;
68888;SDS011;55930;47.412;8.790;2022-12-08T07:03:18;37.45;;;23.05;;
68888;SDS011;55930;47.412;8.790;2022-12-08T07:06:38;37.37;;;23.13;;
68888;SDS011;55930;47.412;8.790;2022-12-08T07:10:12;31.83;;;21.05;;
68888;SDS011;55930;47.412;8.790;2022-12-08T07:13:32;35.93;;;22.27;;
68888;SDS011;55930;47.412;8.790;2022-12-08T07:16:55;35.50;;;22.08;;
68888;SDS011;55930;47.412;8.790;2022-12-08T07:20:15;29.97;;;19.60;;
68888;SDS011;55930;47.412;8.790;2022-12-08T07:23:36;36.60;;;21.90;;
68888;SDS011;55930;47.412;8.790;2022-12-08T07:26:57;36.03;;;21.73;;
68888;SDS011;55930;47.412;8.790;2022-12-08T07:30:17;34.57;;;20.10;;
68888;SDS011;55930;47.412;8.790;2022-12-08T07:33:38;36.28;;;22.45;;
68888;SDS011;55930;47.412;8.790;2022-12-08T07:36:58;33.40;;;22.47;;
68888;SDS011;55930;47.412;8.790;2022-12-08T07:40:19;35.87;;;22.07;;
68888;SDS011;55930;47.412;8.790;2022-12-08T07:43:57;37.85;;;22.95;;
68888;SDS011;55930;47.412;8.790;2022-12-08T07:47:17;34.47;;;23.10;;
68888;SDS011;55930;47.412;8.790;2022-12-08T07:50:38;34.10;;;22.33;;
68888;SDS011;55930;47.412;8.790;2022-12-08T07:53:58;36.67;;;21.97;;
68888;SDS011;55930;47.412;8.790;2022-12-08T07:57:19;32.20;;;20.87;;
68888;SDS011;55930;47.412;8.790;2022-12-08T08:00:39;33.30;;;21.93;;
68888;SDS011;55930;47.412;8.790;2022-12-08T08:04:03;34.93;;;23.10;;
68888;SDS011;55930;47.412;8.790;2022-12-08T08:07:24;32.70;;;21.77;;
68888;SDS011;55930;47.412;8.790;2022-12-08T08:10:44;32.90;;;20.90;;
68888;SDS011;55930;47.412;8.790;2022-12-08T08:14:06;31.25;;;21.42;;
68888;SDS011;55930;47.412;8.790;2022-12-08T08:17:27;32.23;;;21.67;;
68888;SDS011;55930;47.412;8.790;2022-12-08T08:20:48;31.17;;;20.42;;
68888;SDS011;55930;47.412;8.790;2022-12-08T08:24:11;32.60;;;21.90;;
68888;SDS011;55930;47.412;8.790;2022-12-08T08:27:31;31.20;;;20.77;;
68888;SDS011;55930;47.412;8.790;2022-12-08T08:30:54;35.05;;;22.42;;
68888;SDS011;55930;47.412;8.790;2022-12-08T08:34:15;27.67;;;19.40;;
68888;SDS011;55930;47.412;8.790;2022-12-08T08:37:36;33.43;;;21.63;;
68888;SDS011;55930;47.412;8.790;2022-12-08T08:40:59;38.03;;;24.07;;
68888;SDS011;55930;47.412;8.790;2022-12-08T08:44:22;34.08;;;22.08;;
68888;SDS011;55930;47.412;8.790;2022-12-08T08:47:42;35.23;;;23.63;;
68888;SDS011;55930;47.412;8.790;2022-12-08T08:51:06;32.60;;;22.13;;
68888;SDS011;55930;47.412;8.790;2022-12-08T08:54:32;37.17;;;24.52;;
68888;SDS011;55930;47.412;8.790;2022-12-08T08:57:52;32.83;;;22.90;;
68888;SDS011;55930;47.412;8.790;2022-12-08T09:01:20;32.47;;;21.67;;
68888;SDS011;55930;47.412;8.790;2022-12-08T09:04:44;32.75;;;22.25;;
68888;SDS011;55930;47.412;8.790;2022-12-08T09:08:04;35.67;;;22.67;;
68888;SDS011;55930;47.412;8.790;2022-12-08T09:11:25;35.83;;;23.63;;
68888;SDS011;55930;47.412;8.790;2022-12-08T09:14:45;37.03;;;23.30;;
68888;SDS011;55930;47.412;8.790;2022-12-08T09:18:06;34.00;;;23.20;;
68888;SDS011;55930;47.412;8.790;2022-12-08T09:21:26;33.33;;;22.93;;
68888;SDS011;55930;47.412;8.790;2022-12-08T09:24:47;32.73;;;22.67;;
68888;SDS011;55930;47.412;8.790;2022-12-08T09:28:07;31.20;;;22.03;;
68888;SDS011;55930;47.412;8.790;2022-12-08T09:31:27;33.37;;;22.77;;
68888;SDS011;55930;47.412;8.790;2022-12-08T09:34:50;27.67;;;21.83;;
68888;SDS011;55930;47.412;8.790;2022-12-08T09:38:11;32.78;;;21.50;;
68888;SDS011;55930;47.412;8.790;2022-12-08T09:41:35;32.43;;;22.00;;
68888;SDS011;55930;47.412;8.790;2022-12-08T09:45:07;31.90;;;21.95;;
68888;SDS011;55930;47.412;8.790;2022-12-08T09:48:34;29.20;;;21.70;;
68888;SDS011;55930;47.412;8.790;2022-12-08T09:52:00;27.90;;;19.33;;
68888;SDS011;55930;47.412;8.790;2022-12-08T10:02:20;26.95;;;20.55;;
68888;SDS011;55930;47.412;8.790;2022-12-08T10:05:53;30.67;;;20.35;;
68888;SDS011;55930;47.412;8.790;2022-12-08T10:16:54;26.58;;;19.45;;
68888;SDS011;55930;47.412;8.790;2022-12-08T10:20:24;29.67;;;20.20;;
68888;SDS011;55930;47.412;8.790;2022-12-08T10:23:49;25.08;;;18.08;;
68888;SDS011;55930;47.412;8.790;2022-12-08T10:27:12;26.35;;;18.67;;
68888;SDS011;55930;47.412;8.790;2022-12-08T10:30:32;24.47;;;18.90;;
68888;SDS011;55930;47.412;8.790;2022-12-08T10:33:59;22.58;;;17.05;;
68888;SDS011;55930;47.412;8.790;2022-12-08T10:37:20;23.05;;;18.08;;
68888;SDS011;55930;47.412;8.790;2022-12-08T10:40:41;22.57;;;17.53;;
68888;SDS011;55930;47.412;8.790;2022-12-08T10:44:03;22.73;;;18.13;;
68888;SDS011;55930;47.412;8.790;2022-12-08T10:47:27;23.60;;;17.93;;
68888;SDS011;55930;47.412;8.790;2022-12-08T10:54:33;19.80;;;16.20;;
68888;SDS011;55930;47.412;8.790;2022-12-08T10:57:57;24.27;;;16.58;;
68888;SDS011;55930;47.412;8.790;2022-12-08T11:01:24;21.30;;;16.03;;
68888;SDS011;55930;47.412;8.790;2022-12-08T11:04:47;16.92;;;14.10;;
68888;SDS011;55930;47.412;8.790;2022-12-08T11:08:19;21.25;;;15.98;;
68888;SDS011;55930;47.412;8.790;2022-12-08T11:11:49;20.97;;;16.87;;
68888;SDS011;55930;47.412;8.790;2022-12-08T11:15:15;21.52;;;15.73;;
68888;SDS011;55930;47.412;8.790;2022-12-08T11:18:41;20.05;;;15.32;;
68888;SDS011;55930;47.412;8.790;2022-12-08T11:25:44;21.27;;;15.73;;
68888;SDS011;55930;47.412;8.790;2022-12-08T11:29:04;19.63;;;16.17;;
68888;SDS011;55930;47.412;8.790;2022-12-08T11:32:27;18.15;;;14.70;;
68888;SDS011;55930;47.412;8.790;2022-12-08T11:39:29;19.75;;;15.50;;
68888;SDS011;55930;47.412;8.790;2022-12-08T11:50:15;17.80;;;13.68;;
68888;SDS011;55930;47.412;8.790;2022-12-08T11:57:15;17.42;;;13.38;;
68888;SDS011;55930;47.412;8.790;2022-12-08T12:00:39;18.88;;;14.73;;
68888;SDS011;55930;47.412;8.790;2022-12-08T12:07:53;18.40;;;14.68;;
68888;SDS011;55930;47.412;8.790;2022-12-08T12:19:18;22.42;;;17.90;;
68888;SDS011;55930;47.412;8.790;2022-12-08T12:22:40;20.02;;;17.88;;
68888;SDS011;55930;47.412;8.790;2022-12-08T12:26:06;18.17;;;14.95;;
68888;SDS011;55930;47.412;8.790;2022-12-08T12:29:32;17.75;;;14.20;;
68888;SDS011;55930;47.412;8.790;2022-12-08T12:32:56;17.88;;;15.05;;
68888;SDS011;55930;47.412;8.790;2022-12-08T12:36:18;17.73;;;15.18;;
68888;SDS011;55930;47.412;8.790;2022-12-08T12:43:24;15.00;;;13.15;;
68888;SDS011;55930;47.412;8.790;2022-12-08T12:50:10;16.37;;;12.97;;
68888;SDS011;55930;47.412;8.790;2022-12-08T13:00:28;18.55;;;13.98;;
68888;SDS011;55930;47.412;8.790;2022-12-08T13:03:50;14.67;;;12.13;;
68888;SDS011;55930;47.412;8.790;2022-12-08T13:07:26;14.45;;;12.75;;
68888;SDS011;55930;47.412;8.790;2022-12-08T13:11:02;15.55;;;12.27;;
68888;SDS011;55930;47.412;8.790;2022-12-08T13:14:36;16.17;;;13.13;;
68888;SDS011;55930;47.412;8.790;2022-12-08T13:18:14;16.90;;;11.52;;
68888;SDS011;55930;47.412;8.790;2022-12-08T13:21:38;16.05;;;12.98;;
68888;SDS011;55930;47.412;8.790;2022-12-08T13:25:43;15.32;;;12.23;;
68888;SDS011;55930;47.412;8.790;2022-12-08T13:36:04;16.40;;;14.70;;
68888;SDS011;55930;47.412;8.790;2022-12-08T13:39:36;15.27;;;13.68;;
68888;SDS011;55930;47.412;8.790;2022-12-08T13:46:41;15.32;;;13.15;;
68888;SDS011;55930;47.412;8.790;2022-12-08T13:53:33;14.68;;;13.10;;
68888;SDS011;55930;47.412;8.790;2022-12-08T13:56:57;14.27;;;12.70;;
68888;SDS011;55930;47.412;8.790;2022-12-08T14:07:15;16.85;;;13.07;;
68888;SDS011;55930;47.412;8.790;2022-12-08T14:10:36;12.85;;;11.40;;
68888;SDS011;55930;47.412;8.790;2022-12-08T14:13:56;14.93;;;12.50;;
68888;SDS011;55930;47.412;8.790;2022-12-08T14:17:17;14.80;;;13.20;;
68888;SDS011;55930;47.412;8.790;2022-12-08T14:20:40;16.90;;;13.18;;
68888;SDS011;55930;47.412;8.790;2022-12-08T14:24:03;15.70;;;14.00;;
68888;SDS011;55930;47.412;8.790;2022-12-08T14:27:24;17.33;;;13.68;;
68888;SDS011;55930;47.412;8.790;2022-12-08T14:30:47;15.70;;;12.68;;
68888;SDS011;55930;47.412;8.790;2022-12-08T14:34:11;14.85;;;13.32;;
68888;SDS011;55930;47.412;8.790;2022-12-08T14:37:39;16.45;;;14.32;;
68888;SDS011;55930;47.412;8.790;2022-12-08T14:41:06;20.13;;;14.80;;
68888;SDS011;55930;47.412;8.790;2022-12-08T14:44:29;20.63;;;14.80;;
68888;SDS011;55930;47.412;8.790;2022-12-08T14:47:52;19.23;;;14.85;;
68888;SDS011;55930;47.412;8.790;2022-12-08T14:51:21;18.83;;;15.53;;
68888;SDS011;55930;47.412;8.790;2022-12-08T14:54:50;17.90;;;14.82;;
68888;SDS011;55930;47.412;8.790;2022-12-08T14:58:25;21.90;;;16.35;;
68888;SDS011;55930;47.412;8.790;2022-12-08T15:01:48;17.90;;;13.77;;
68888;SDS011;55930;47.412;8.790;2022-12-08T15:05:11;20.42;;;14.85;;
68888;SDS011;55930;47.412;8.790;2022-12-08T15:08:49;20.08;;;15.50;;
68888;SDS011;55930;47.412;8.790;2022-12-08T15:12:21;17.98;;;14.50;;
68888;SDS011;55930;47.412;8.790;2022-12-08T15:15:50;20.55;;;15.55;;
68888;SDS011;55930;47.412;8.790;2022-12-08T15:22:47;22.02;;;16.00;;
68888;SDS011;55930;47.412;8.790;2022-12-08T15:26:07;20.33;;;15.30;;
68888;SDS011;55930;47.412;8.790;2022-12-08T15:29:29;19.10;;;13.98;;
68888;SDS011;55930;47.412;8.790;2022-12-08T15:32:52;17.73;;;14.25;;
68888;SDS011;55930;47.412;8.790;2022-12-08T15:36:15;20.27;;;13.70;;
68888;SDS011;55930;47.412;8.790;2022-12-08T15:39:36;19.67;;;15.03;;
68888;SDS011;55930;47.412;8.790;2022-12-08T15:43:00;19.25;;;14.77;;
68888;SDS011;55930;47.412;8.790;2022-12-08T15:46:23;18.48;;;13.40;;
68888;SDS011;55930;47.412;8.790;2022-12-08T15:49:44;17.38;;;13.57;;
68888;SDS011;55930;47.412;8.790;2022-12-08T15:53:06;18.50;;;13.25;;
68888;SDS011;55930;47.412;8.790;2022-12-08T15:56:32;19.13;;;14.27;;
68888;SDS011;55930;47.412;8.790;2022-12-08T15:59:53;20.20;;;14.15;;
68888;SDS011;55930;47.412;8.790;2022-12-08T16:03:23;21.23;;;13.80;;
68888;SDS011;55930;47.412;8.790;2022-12-08T16:06:53;22.75;;;15.07;;
68888;SDS011;55930;47.412;8.790;2022-12-08T16:10:21;20.67;;;14.53;;
68888;SDS011;55930;47.412;8.790;2022-12-08T16:13:46;19.58;;;14.18;;
68888;SDS011;55930;47.412;8.790;2022-12-08T16:17:15;17.80;;;12.75;;
68888;SDS011;55930;47.412;8.790;2022-12-08T16:20:37;19.63;;;13.40;;
68888;SDS011;55930;47.412;8.790;2022-12-08T16:23:57;20.07;;;13.57;;
68888;SDS011;55930;47.412;8.790;2022-12-08T16:27:21;23.20;;;13.77;;
68888;SDS011;55930;47.412;8.790;2022-12-08T16:30:42;21.88;;;14.43;;
68888;SDS011;55930;47.412;8.790;2022-12-08T16:34:05;22.70;;;14.82;;
68888;SDS011;55930;47.412;8.790;2022-12-08T16:37:25;20.47;;;14.80;;
68888;SDS011;55930;47.412;8.790;2022-12-08T16:40:47;20.95;;;13.60;;
68888;SDS011;55930;47.412;8.790;2022-12-08T16:44:26;19.08;;;13.45;;
68888;SDS011;55930;47.412;8.790;2022-12-08T16:51:18;22.27;;;14.67;;
68888;SDS011;55930;47.412;8.790;2022-12-08T16:54:39;24.30;;;15.15;;
68888;SDS011;55930;47.412;8.790;2022-12-08T16:58:00;21.60;;;15.37;;
68888;SDS011;55930;47.412;8.790;2022-12-08T17:01:21;25.23;;;15.02;;
68888;SDS011;55930;47.412;8.790;2022-12-08T17:04:42;24.52;;;17.88;;
68888;SDS011;55930;47.412;8.790;2022-12-08T17:08:03;26.60;;;16.87;;
68888;SDS011;55930;47.412;8.790;2022-12-08T17:11:23;24.47;;;15.67;;
68888;SDS011;55930;47.412;8.790;2022-12-08T17:14:47;26.70;;;16.75;;
68888;SDS011;55930;47.412;8.790;2022-12-08T17:18:07;23.83;;;16.47;;
68888;SDS011;55930;47.412;8.790;2022-12-08T17:21:28;24.50;;;15.20;;
68888;SDS011;55930;47.412;8.790;2022-12-08T17:24:48;26.57;;;15.63;;
68888;SDS011;55930;47.412;8.790;2022-12-08T17:28:09;27.23;;;16.30;;
68888;SDS011;55930;47.412;8.790;2022-12-08T17:31:29;29.07;;;20.13;;
68888;SDS011;55930;47.412;8.790;2022-12-08T17:34:51;25.75;;;17.27;;
68888;SDS011;55930;47.412;8.790;2022-12-08T17:38:14;23.85;;;15.98;;
68888;SDS011;55930;47.412;8.790;2022-12-08T17:41:36;25.02;;;17.20;;
68888;SDS011;55930;47.412;8.790;2022-12-08T17:44:56;37.33;;;24.10;;
68888;SDS011;55930;47.412;8.790;2022-12-08T17:48:16;27.47;;;19.17;;
68888;SDS011;55930;47.412;8.790;2022-12-08T17:51:37;27.20;;;18.20;;
68888;SDS011;55930;47.412;8.790;2022-12-08T17:54:57;23.20;;;17.10;;
68888;SDS011;55930;47.412;8.790;2022-12-08T17:58:18;23.87;;;17.10;;
68888;SDS011;55930;47.412;8.790;2022-12-08T18:01:39;26.15;;;17.40;;
68888;SDS011;55930;47.412;8.790;2022-12-08T18:05:00;26.77;;;18.43;;
68888;SDS011;55930;47.412;8.790;2022-12-08T18:08:20;31.30;;;20.63;;
68888;SDS011;55930;47.412;8.790;2022-12-08T18:11:41;29.23;;;19.33;;
68888;SDS011;55930;47.412;8.790;2022-12-08T18:15:04;29.98;;;18.00;;
68888;SDS011;55930;47.412;8.790;2022-12-08T18:18:27;35.17;;;22.67;;
68888;SDS011;55930;47.412;8.790;2022-12-08T18:21:48;28.40;;;19.37;;
68888;SDS011;55930;47.412;8.790;2022-12-08T18:25:09;28.77;;;19.10;;
68888;SDS011;55930;47.412;8.790;2022-12-08T18:28:31;25.77;;;16.75;;
68888;SDS011;55930;47.412;8.790;2022-12-08T18:31:57;29.10;;;18.23;;
68888;SDS011;55930;47.412;8.790;2022-12-08T18:35:17;33.60;;;21.58;;
68888;SDS011;55930;47.412;8.790;2022-12-08T18:38:43;40.88;;;24.13;;
68888;SDS011;55930;47.412;8.790;2022-12-08T18:42:09;37.03;;;23.75;;
68888;SDS011;55930;47.412;8.790;2022-12-08T18:45:42;34.08;;;21.70;;
68888;SDS011;55930;47.412;8.790;2022-12-08T18:49:02;29.53;;;20.20;;
68888;SDS011;55930;47.412;8.790;2022-12-08T18:52:22;30.43;;;18.70;;
68888;SDS011;55930;47.412;8.790;2022-12-08T18:55:43;26.37;;;17.10;;
68888;SDS011;55930;47.412;8.790;2022-12-08T18:59:06;27.10;;;18.63;;
68888;SDS011;55930;47.412;8.790;2022-12-08T19:02:29;27.38;;;17.65;;
68888;SDS011;55930;47.412;8.790;2022-12-08T19:05:51;28.10;;;18.80;;
68888;SDS011;55930;47.412;8.790;2022-12-08T19:09:20;27.52;;;18.83;;
68888;SDS011;55930;47.412;8.790;2022-12-08T19:12:41;25.80;;;17.10;;
68888;SDS011;55930;47.412;8.790;2022-12-08T19:16:02;25.00;;;16.97;;
68888;SDS011;55930;47.412;8.790;2022-12-08T19:19:35;25.17;;;16.80;;
68888;SDS011;55930;47.412;8.790;2022-12-08T19:22:55;25.00;;;17.53;;
68888;SDS011;55930;47.412;8.790;2022-12-08T19:26:16;27.13;;;16.63;;
68888;SDS011;55930;47.412;8.790;2022-12-08T19:32:58;36.25;;;23.27;;
68888;SDS011;55930;47.412;8.790;2022-12-08T19:36:19;35.90;;;23.00;;
68888;SDS011;55930;47.412;8.790;2022-12-08T19:39:41;33.38;;;21.33;;
68888;SDS011;55930;47.412;8.790;2022-12-08T19:43:20;30.75;;;19.20;;
68888;SDS011;55930;47.412;8.790;2022-12-08T19:47:00;28.13;;;18.27;;
68888;SDS011;55930;47.412;8.790;2022-12-08T19:50:20;26.90;;;17.70;;
68888;SDS011;55930;47.412;8.790;2022-12-08T19:53:56;25.85;;;16.10;;
68888;SDS011;55930;47.412;8.790;2022-12-08T19:57:16;27.63;;;17.27;;
68888;SDS011;55930;47.412;8.790;2022-12-08T20:00:39;30.52;;;18.85;;
68888;SDS011;55930;47.412;8.790;2022-12-08T20:04:00;28.05;;;18.77;;
68888;SDS011;55930;47.412;8.790;2022-12-08T20:07:23;29.57;;;18.67;;
68888;SDS011;55930;47.412;8.790;2022-12-08T20:10:43;31.92;;;20.02;;
68888;SDS011;55930;47.412;8.790;2022-12-08T20:14:04;27.07;;;18.63;;
68888;SDS011;55930;47.412;8.790;2022-12-08T20:17:25;29.77;;;19.75;;
68888;SDS011;55930;47.412;8.790;2022-12-08T20:20:48;30.30;;;18.47;;
68888;SDS011;55930;47.412;8.790;2022-12-08T20:24:13;30.60;;;18.90;;
68888;SDS011;55930;47.412;8.790;2022-12-08T20:27:35;30.10;;;20.05;;
68888;SDS011;55930;47.412;8.790;2022-12-08T20:30:55;32.67;;;19.87;;
68888;SDS011;55930;47.412;8.790;2022-12-08T20:34:16;28.23;;;18.43;;
68888;SDS011;55930;47.412;8.790;2022-12-08T20:37:38;30.30;;;19.90;;
68888;SDS011;55930;47.412;8.790;2022-12-08T20:40:58;33.43;;;20.03;;
68888;SDS011;55930;47.412;8.790;2022-12-08T20:44:21;28.90;;;19.10;;
68888;SDS011;55930;47.412;8.790;2022-12-08T20:47:41;29.50;;;18.90;;
68888;SDS011;55930;47.412;8.790;2022-12-08T20:51:02;33.80;;;20.70;;
68888;SDS011;55930;47.412;8.790;2022-12-08T20:54:23;28.77;;;19.73;;
68888;SDS011;55930;47.412;8.790;2022-12-08T20:57:43;29.93;;;19.80;;
68888;SDS011;55930;47.412;8.790;2022-12-08T21:01:08;32.13;;;19.53;;
68888;SDS011;55930;47.412;8.790;2022-12-08T21:04:29;33.70;;;21.52;;
68888;SDS011;55930;47.412;8.790;2022-12-08T21:07:54;33.63;;;20.80;;
68888;SDS011;55930;47.412;8.790;2022-12-08T21:11:15;31.63;;;20.87;;
68888;SDS011;55930;47.412;8.790;2022-12-08T21:14:36;33.28;;;20.02;;
68888;SDS011;55930;47.412;8.790;2022-12-08T21:17:56;33.30;;;20.30;;
68888;SDS011;55930;47.412;8.790;2022-12-08T21:21:17;29.37;;;20.43;;
68888;SDS011;55930;47.412;8.790;2022-12-08T21:24:37;30.00;;;20.53;;
68888;SDS011;55930;47.412;8.790;2022-12-08T21:27:58;32.33;;;20.30;;
68888;SDS011;55930;47.412;8.790;2022-12-08T21:31:18;33.10;;;20.83;;
68888;SDS011;55930;47.412;8.790;2022-12-08T21:34:40;35.22;;;20.77;;
68888;SDS011;55930;47.412;8.790;2022-12-08T21:38:04;31.88;;;21.13;;
68888;SDS011;55930;47.412;8.790;2022-12-08T21:41:28;34.13;;;21.67;;
68888;SDS011;55930;47.412;8.790;2022-12-08T21:48:28;29.07;;;20.27;;
68888;SDS011;55930;47.412;8.790;2022-12-08T21:51:48;30.50;;;21.03;;
68888;SDS011;55930;47.412;8.790;2022-12-08T21:55:09;28.60;;;18.87;;
68888;SDS011;55930;47.412;8.790;2022-12-08T21:58:31;31.50;;;20.52;;
68888;SDS011;55930;47.412;8.790;2022-12-08T22:01:51;33.50;;;21.37;;